sensor_id;sensor_type;location;lat;lon;timestamp;pressure;altitude;pressure_sealevel;temperature;humidity
80712;BME280;70078;51.596;5.678;2024-03-07T00:00:23;102443.28;;;6.38;86.17
80712;BME280;70078;51.596;5.678;2024-03-07T00:02:50;102406.88;;;6.27;86.08
80712;BME280;70078;51.596;5.678;2024-03-07T00:05:16;102443.84;;;6.43;85.79
80712;BME280;70078;51.596;5.678;2024-03-07T00:07:42;102443.63;;;6.46;85.83
80712;BME280;70078;51.596;5.678;2024-03-07T00:10:08;102447.50;;;6.55;85.66
80712;BME280;70078;51.596;5.678;2024-03-07T00:12:35;102441.13;;;6.57;85.25
80712;BME280;70078;51.596;5.678;2024-03-07T00:15:03;102449.03;;;6.72;85.11
80712;BME280;70078;51.596;5.678;2024-03-07T00:17:29;102446.81;;;6.65;85.35
80712;BME280;70078;51.596;5.678;2024-03-07T00:19:54;102425.56;;;6.65;85.32
80712;BME280;70078;51.596;5.678;2024-03-07T00:22:20;102451.16;;;6.66;85.30
80712;BME280;70078;51.596;5.678;2024-03-07T00:24:45;102415.19;;;6.48;85.31
80712;BME280;70078;51.596;5.678;2024-03-07T00:27:13;102445.28;;;6.61;85.67
80712;BME280;70078;51.596;5.678;2024-03-07T00:29:42;102435.00;;;6.70;85.26
80712;BME280;70078;51.596;5.678;2024-03-07T00:32:08;102448.84;;;6.75;85.25
80712;BME280;70078;51.596;5.678;2024-03-07T00:34:33;102443.13;;;6.81;85.01
80712;BME280;70078;51.596;5.678;2024-03-07T00:36:59;102441.72;;;6.75;84.94
80712;BME280;70078;51.596;5.678;2024-03-07T00:39:25;102422.28;;;6.75;84.88
80712;BME280;70078;51.596;5.678;2024-03-07T00:41:51;102446.91;;;6.77;85.04
80712;BME280;70078;51.596;5.678;2024-03-07T00:44:16;102448.28;;;6.70;85.35
80712;BME280;70078;51.596;5.678;2024-03-07T00:46:42;102441.06;;;6.72;85.71
80712;BME280;70078;51.596;5.678;2024-03-07T00:49:07;102434.66;;;6.61;85.78
80712;BME280;70078;51.596;5.678;2024-03-07T00:51:33;102416.72;;;6.52;85.48
80712;BME280;70078;51.596;5.678;2024-03-07T00:53:58;102438.47;;;6.57;85.48
80712;BME280;70078;51.596;5.678;2024-03-07T00:56:24;102439.94;;;6.49;85.79
80712;BME280;70078;51.596;5.678;2024-03-07T00:58:50;102404.00;;;6.30;85.81
80712;BME280;70078;51.596;5.678;2024-03-07T01:01:16;102425.97;;;6.32;86.11
80712;BME280;70078;51.596;5.678;2024-03-07T01:03:43;102432.50;;;6.27;86.27
80712;BME280;70078;51.596;5.678;2024-03-07T01:06:09;102419.47;;;6.24;86.06
80712;BME280;70078;51.596;5.678;2024-03-07T01:08:36;102408.63;;;6.14;86.32
80712;BME280;70078;51.596;5.678;2024-03-07T01:11:02;102410.19;;;6.17;86.01
80712;BME280;70078;51.596;5.678;2024-03-07T01:13:34;102425.34;;;6.29;85.57
80712;BME280;70078;51.596;5.678;2024-03-07T01:15:59;102424.03;;;6.22;85.75
80712;BME280;70078;51.596;5.678;2024-03-07T01:18:25;102417.44;;;6.00;85.67
80712;BME280;70078;51.596;5.678;2024-03-07T01:20:50;102414.44;;;5.92;85.94
80712;BME280;70078;51.596;5.678;2024-03-07T01:23:15;102423.13;;;5.94;86.12
80712;BME280;70078;51.596;5.678;2024-03-07T01:25:40;102426.91;;;5.90;85.88
80712;BME280;70078;51.596;5.678;2024-03-07T01:28:06;102412.63;;;5.78;86.27
80712;BME280;70078;51.596;5.678;2024-03-07T01:30:32;102387.09;;;5.63;86.35
80712;BME280;70078;51.596;5.678;2024-03-07T01:32:58;102404.31;;;5.70;86.32
80712;BME280;70078;51.596;5.678;2024-03-07T01:35:23;102412.94;;;5.60;86.22
80712;BME280;70078;51.596;5.678;2024-03-07T01:37:48;102398.25;;;5.54;86.35
80712;BME280;70078;51.596;5.678;2024-03-07T01:40:14;102404.03;;;5.46;86.70
80712;BME280;70078;51.596;5.678;2024-03-07T01:42:40;102395.78;;;5.51;86.72
80712;BME280;70078;51.596;5.678;2024-03-07T01:45:06;102401.19;;;5.49;86.59
80712;BME280;70078;51.596;5.678;2024-03-07T01:47:34;102383.13;;;5.42;86.42
80712;BME280;70078;51.596;5.678;2024-03-07T01:50:00;102380.94;;;5.20;86.85
80712;BME280;70078;51.596;5.678;2024-03-07T01:52:25;102388.25;;;5.45;87.01
80712;BME280;70078;51.596;5.678;2024-03-07T01:54:52;102397.03;;;5.31;87.19
80712;BME280;70078;51.596;5.678;2024-03-07T01:57:17;102401.47;;;5.16;87.89
80712;BME280;70078;51.596;5.678;2024-03-07T01:59:44;102347.28;;;4.93;87.97
80712;BME280;70078;51.596;5.678;2024-03-07T02:02:09;102371.59;;;5.00;87.98
80712;BME280;70078;51.596;5.678;2024-03-07T02:04:35;102387.53;;;4.98;88.53
80712;BME280;70078;51.596;5.678;2024-03-07T02:07:00;102378.44;;;4.88;88.43
80712;BME280;70078;51.596;5.678;2024-03-07T02:09:26;102384.97;;;4.97;88.59
80712;BME280;70078;51.596;5.678;2024-03-07T02:11:51;102379.97;;;4.92;88.43
80712;BME280;70078;51.596;5.678;2024-03-07T02:14:16;102371.47;;;4.87;88.77
80712;BME280;70078;51.596;5.678;2024-03-07T02:16:42;102357.84;;;4.79;88.88
80712;BME280;70078;51.596;5.678;2024-03-07T02:19:11;102379.19;;;4.90;89.01
80712;BME280;70078;51.596;5.678;2024-03-07T02:21:39;102381.84;;;4.90;88.97
80712;BME280;70078;51.596;5.678;2024-03-07T02:24:04;102356.69;;;4.69;89.21
80712;BME280;70078;51.596;5.678;2024-03-07T02:26:29;102368.97;;;4.70;89.77
80712;BME280;70078;51.596;5.678;2024-03-07T02:28:55;102356.38;;;4.59;89.74
80712;BME280;70078;51.596;5.678;2024-03-07T02:31:20;102364.19;;;4.61;89.84
80712;BME280;70078;51.596;5.678;2024-03-07T02:33:45;102360.31;;;4.52;90.09
80712;BME280;70078;51.596;5.678;2024-03-07T02:36:11;102376.31;;;4.65;89.73
80712;BME280;70078;51.596;5.678;2024-03-07T02:38:37;102344.53;;;4.51;90.07
80712;BME280;70078;51.596;5.678;2024-03-07T02:41:02;102356.91;;;4.50;90.32
80712;BME280;70078;51.596;5.678;2024-03-07T02:43:28;102327.34;;;4.43;90.25
80712;BME280;70078;51.596;5.678;2024-03-07T02:45:53;102372.91;;;4.63;90.17
80712;BME280;70078;51.596;5.678;2024-03-07T02:48:19;102342.94;;;4.48;90.04
80712;BME280;70078;51.596;5.678;2024-03-07T02:50:45;102363.06;;;4.51;89.79
80712;BME280;70078;51.596;5.678;2024-03-07T02:53:10;102354.00;;;4.55;90.41
80712;BME280;70078;51.596;5.678;2024-03-07T02:55:35;102358.25;;;4.57;90.56
80712;BME280;70078;51.596;5.678;2024-03-07T02:58:01;102363.75;;;4.54;90.24
80712;BME280;70078;51.596;5.678;2024-03-07T03:00:27;102352.47;;;4.51;90.36
80712;BME280;70078;51.596;5.678;2024-03-07T03:02:55;102363.41;;;4.44;90.37
80712;BME280;70078;51.596;5.678;2024-03-07T03:05:20;102331.56;;;4.32;90.41
80712;BME280;70078;51.596;5.678;2024-03-07T03:07:46;102311.47;;;4.13;90.43
80712;BME280;70078;51.596;5.678;2024-03-07T03:10:24;102353.91;;;4.56;90.46
80712;BME280;70078;51.596;5.678;2024-03-07T03:12:57;102343.53;;;4.37;90.09
80712;BME280;70078;51.596;5.678;2024-03-07T03:15:24;102354.53;;;4.45;90.47
80712;BME280;70078;51.596;5.678;2024-03-07T03:17:49;102353.22;;;4.38;90.37
80712;BME280;70078;51.596;5.678;2024-03-07T03:20:15;102346.47;;;4.33;90.53
80712;BME280;70078;51.596;5.678;2024-03-07T03:22:50;102348.94;;;4.36;90.21
80712;BME280;70078;51.596;5.678;2024-03-07T03:25:16;102250.44;;;3.72;90.21
80712;BME280;70078;51.596;5.678;2024-03-07T03:27:41;102337.94;;;4.28;90.71
80712;BME280;70078;51.596;5.678;2024-03-07T03:30:07;102349.72;;;4.22;90.79
80712;BME280;70078;51.596;5.678;2024-03-07T03:32:32;102344.69;;;4.33;90.75
80712;BME280;70078;51.596;5.678;2024-03-07T03:34:57;102316.66;;;4.15;90.71
80712;BME280;70078;51.596;5.678;2024-03-07T03:37:23;102340.00;;;4.38;90.56
80712;BME280;70078;51.596;5.678;2024-03-07T03:39:49;102311.03;;;4.21;90.07
80712;BME280;70078;51.596;5.678;2024-03-07T03:42:15;102330.13;;;4.26;90.40
80712;BME280;70078;51.596;5.678;2024-03-07T03:44:40;102313.66;;;4.21;90.21
80712;BME280;70078;51.596;5.678;2024-03-07T03:47:05;102308.56;;;4.18;90.33
80712;BME280;70078;51.596;5.678;2024-03-07T03:49:31;102322.53;;;4.20;90.28
80712;BME280;70078;51.596;5.678;2024-03-07T03:51:57;102316.84;;;4.12;90.23
80712;BME280;70078;51.596;5.678;2024-03-07T03:54:22;102326.97;;;4.20;90.13
80712;BME280;70078;51.596;5.678;2024-03-07T03:56:48;102321.53;;;4.07;90.42
80712;BME280;70078;51.596;5.678;2024-03-07T03:59:13;102321.47;;;4.08;90.72
80712;BME280;70078;51.596;5.678;2024-03-07T04:01:38;102325.13;;;4.06;90.57
80712;BME280;70078;51.596;5.678;2024-03-07T04:04:04;102294.97;;;3.94;90.94
80712;BME280;70078;51.596;5.678;2024-03-07T04:06:30;102314.72;;;4.03;90.58
80712;BME280;70078;51.596;5.678;2024-03-07T04:08:56;102318.47;;;3.99;90.80
80712;BME280;70078;51.596;5.678;2024-03-07T04:11:21;102301.19;;;3.77;90.82
80712;BME280;70078;51.596;5.678;2024-03-07T04:13:46;102303.69;;;3.80;90.91
80712;BME280;70078;51.596;5.678;2024-03-07T04:16:12;102319.00;;;3.89;90.94
80712;BME280;70078;51.596;5.678;2024-03-07T04:18:39;102301.13;;;3.79;91.08
80712;BME280;70078;51.596;5.678;2024-03-07T04:21:04;102316.72;;;3.83;91.06
80712;BME280;70078;51.596;5.678;2024-03-07T04:23:30;102312.38;;;3.82;91.40
80712;BME280;70078;51.596;5.678;2024-03-07T04:25:55;102320.72;;;3.90;90.87
80712;BME280;70078;51.596;5.678;2024-03-07T04:28:21;102320.78;;;3.89;90.75
80712;BME280;70078;51.596;5.678;2024-03-07T04:30:47;102303.84;;;3.77;90.82
80712;BME280;70078;51.596;5.678;2024-03-07T04:33:14;102307.31;;;3.78;90.87
80712;BME280;70078;51.596;5.678;2024-03-07T04:35:39;102290.75;;;3.60;90.98
80712;BME280;70078;51.596;5.678;2024-03-07T04:38:05;102318.00;;;3.76;90.93
80712;BME280;70078;51.596;5.678;2024-03-07T04:40:36;102330.84;;;3.82;90.90
80712;BME280;70078;51.596;5.678;2024-03-07T04:43:02;102327.53;;;3.95;90.38
80712;BME280;70078;51.596;5.678;2024-03-07T04:45:27;102328.06;;;3.85;90.61
80712;BME280;70078;51.596;5.678;2024-03-07T04:47:53;102305.06;;;3.72;90.72
80712;BME280;70078;51.596;5.678;2024-03-07T04:50:18;102318.59;;;3.81;90.87
80712;BME280;70078;51.596;5.678;2024-03-07T04:52:43;102295.69;;;3.66;91.02
80712;BME280;70078;51.596;5.678;2024-03-07T04:55:10;102293.47;;;3.58;90.62
80712;BME280;70078;51.596;5.678;2024-03-07T04:57:39;102323.59;;;3.70;91.03
80712;BME280;70078;51.596;5.678;2024-03-07T05:00:07;102305.31;;;3.67;90.84
80712;BME280;70078;51.596;5.678;2024-03-07T05:02:34;102298.06;;;3.55;91.17
80712;BME280;70078;51.596;5.678;2024-03-07T05:04:59;102299.19;;;3.51;90.96
80712;BME280;70078;51.596;5.678;2024-03-07T05:07:25;102318.41;;;3.69;90.94
80712;BME280;70078;51.596;5.678;2024-03-07T05:09:50;102313.84;;;3.56;91.34
80712;BME280;70078;51.596;5.678;2024-03-07T05:12:15;102306.44;;;3.63;90.66
80712;BME280;70078;51.596;5.678;2024-03-07T05:14:40;102319.63;;;3.63;90.95
80712;BME280;70078;51.596;5.678;2024-03-07T05:17:06;102323.97;;;3.64;91.07
80712;BME280;70078;51.596;5.678;2024-03-07T05:19:33;102314.25;;;3.49;91.37
80712;BME280;70078;51.596;5.678;2024-03-07T05:21:59;102330.44;;;3.58;91.34
80712;BME280;70078;51.596;5.678;2024-03-07T05:24:24;102328.97;;;3.53;91.61
80712;BME280;70078;51.596;5.678;2024-03-07T05:26:50;102317.56;;;3.52;91.61
80712;BME280;70078;51.596;5.678;2024-03-07T05:29:18;102315.09;;;3.33;91.70
80712;BME280;70078;51.596;5.678;2024-03-07T05:31:43;102316.09;;;3.47;91.77
80712;BME280;70078;51.596;5.678;2024-03-07T05:34:17;102293.81;;;3.37;91.48
80712;BME280;70078;51.596;5.678;2024-03-07T05:36:48;102298.75;;;3.43;91.86
80712;BME280;70078;51.596;5.678;2024-03-07T05:39:15;102323.13;;;3.64;91.21
80712;BME280;70078;51.596;5.678;2024-03-07T05:41:42;102319.16;;;3.55;91.34
80712;BME280;70078;51.596;5.678;2024-03-07T05:44:08;102335.19;;;3.52;91.45
80712;BME280;70078;51.596;5.678;2024-03-07T05:46:37;102319.53;;;3.49;91.56
80712;BME280;70078;51.596;5.678;2024-03-07T05:49:09;102326.53;;;3.50;91.40
80712;BME280;70078;51.596;5.678;2024-03-07T05:51:35;102303.31;;;3.23;91.73
80712;BME280;70078;51.596;5.678;2024-03-07T05:54:00;102318.16;;;3.42;91.84
80712;BME280;70078;51.596;5.678;2024-03-07T05:56:26;102328.03;;;3.38;92.01
80712;BME280;70078;51.596;5.678;2024-03-07T05:58:52;102319.84;;;3.27;92.32
80712;BME280;70078;51.596;5.678;2024-03-07T06:01:17;102310.28;;;3.24;91.79
80712;BME280;70078;51.596;5.678;2024-03-07T06:03:43;102318.06;;;3.27;92.32
80712;BME280;70078;51.596;5.678;2024-03-07T06:06:09;102322.16;;;3.33;91.95
80712;BME280;70078;51.596;5.678;2024-03-07T06:08:36;102319.75;;;3.28;91.70
80712;BME280;70078;51.596;5.678;2024-03-07T06:11:02;102296.66;;;3.16;91.97
80712;BME280;70078;51.596;5.678;2024-03-07T06:13:27;102322.94;;;3.51;91.64
80712;BME280;70078;51.596;5.678;2024-03-07T06:15:53;102308.78;;;3.36;91.55
80712;BME280;70078;51.596;5.678;2024-03-07T06:18:18;102322.75;;;3.38;91.69
80712;BME280;70078;51.596;5.678;2024-03-07T06:20:44;102316.63;;;3.38;91.91
80712;BME280;70078;51.596;5.678;2024-03-07T06:23:10;102312.78;;;3.27;91.93
80712;BME280;70078;51.596;5.678;2024-03-07T06:25:37;102322.19;;;3.49;91.47
80712;BME280;70078;51.596;5.678;2024-03-07T06:28:13;102320.97;;;3.39;91.33
80712;BME280;70078;51.596;5.678;2024-03-07T06:30:40;102310.25;;;3.42;91.49
80712;BME280;70078;51.596;5.678;2024-03-07T06:33:06;102312.19;;;3.38;91.50
80712;BME280;70078;51.596;5.678;2024-03-07T06:35:32;102302.47;;;3.23;92.06
80712;BME280;70078;51.596;5.678;2024-03-07T06:37:57;102299.31;;;3.32;91.77
80712;BME280;70078;51.596;5.678;2024-03-07T06:40:23;102310.66;;;3.34;91.93
80712;BME280;70078;51.596;5.678;2024-03-07T06:42:48;102292.66;;;3.09;92.44
80712;BME280;70078;51.596;5.678;2024-03-07T06:45:14;102295.84;;;3.31;91.58
80712;BME280;70078;51.596;5.678;2024-03-07T06:47:39;102319.69;;;3.46;91.73
80712;BME280;70078;51.596;5.678;2024-03-07T06:50:06;102307.00;;;3.37;91.78
80712;BME280;70078;51.596;5.678;2024-03-07T06:52:34;102295.84;;;3.31;91.63
80712;BME280;70078;51.596;5.678;2024-03-07T06:55:00;102316.91;;;3.49;92.08
80712;BME280;70078;51.596;5.678;2024-03-07T06:57:25;102298.91;;;3.40;92.03
80712;BME280;70078;51.596;5.678;2024-03-07T06:59:50;102287.25;;;3.44;91.60
80712;BME280;70078;51.596;5.678;2024-03-07T07:02:16;102319.97;;;3.57;91.65
80712;BME280;70078;51.596;5.678;2024-03-07T07:04:42;102296.09;;;3.43;91.88
80712;BME280;70078;51.596;5.678;2024-03-07T07:07:08;102319.25;;;3.69;91.63
80712;BME280;70078;51.596;5.678;2024-03-07T07:09:36;102306.44;;;3.63;91.10
80712;BME280;70078;51.596;5.678;2024-03-07T07:12:02;102308.56;;;3.72;91.61
80712;BME280;70078;51.596;5.678;2024-03-07T07:14:28;102290.41;;;3.66;91.20
80712;BME280;70078;51.596;5.678;2024-03-07T07:16:53;102301.56;;;3.71;91.35
80712;BME280;70078;51.596;5.678;2024-03-07T07:19:18;102316.78;;;3.98;90.72
80712;BME280;70078;51.596;5.678;2024-03-07T07:21:44;102286.91;;;3.81;90.69
80712;BME280;70078;51.596;5.678;2024-03-07T07:24:09;102308.25;;;3.93;91.01
80712;BME280;70078;51.596;5.678;2024-03-07T07:26:35;102303.03;;;4.07;90.96
80712;BME280;70078;51.596;5.678;2024-03-07T07:29:01;102301.94;;;4.11;90.56
80712;BME280;70078;51.596;5.678;2024-03-07T07:31:29;102287.78;;;4.12;89.08
80712;BME280;70078;51.596;5.678;2024-03-07T07:33:54;102299.94;;;4.14;89.87
80712;BME280;70078;51.596;5.678;2024-03-07T07:36:20;102308.38;;;4.21;89.92
80712;BME280;70078;51.596;5.678;2024-03-07T07:38:45;102286.22;;;4.08;90.11
80712;BME280;70078;51.596;5.678;2024-03-07T07:41:11;102305.19;;;4.30;90.15
80712;BME280;70078;51.596;5.678;2024-03-07T07:43:39;102301.53;;;4.33;89.83
80712;BME280;70078;51.596;5.678;2024-03-07T07:46:05;102292.78;;;4.47;87.79
80712;BME280;70078;51.596;5.678;2024-03-07T07:48:31;102265.66;;;4.43;88.24
80712;BME280;70078;51.596;5.678;2024-03-07T07:50:56;102297.34;;;4.73;86.79
80712;BME280;70078;51.596;5.678;2024-03-07T07:53:21;102280.16;;;4.66;86.54
80712;BME280;70078;51.596;5.678;2024-03-07T07:55:47;102264.63;;;4.45;87.05
80712;BME280;70078;51.596;5.678;2024-03-07T07:58:14;102293.22;;;4.69;87.40
80712;BME280;70078;51.596;5.678;2024-03-07T08:00:39;102280.06;;;4.67;87.08
80712;BME280;70078;51.596;5.678;2024-03-07T08:03:05;102307.22;;;4.85;87.21
80712;BME280;70078;51.596;5.678;2024-03-07T08:05:39;102304.66;;;4.98;86.44
80712;BME280;70078;51.596;5.678;2024-03-07T08:08:06;102308.72;;;5.04;85.78
80712;BME280;70078;51.596;5.678;2024-03-07T08:10:34;102297.28;;;5.03;86.16
80712;BME280;70078;51.596;5.678;2024-03-07T08:13:01;102272.25;;;4.94;86.12
80712;BME280;70078;51.596;5.678;2024-03-07T08:15:29;102307.59;;;5.22;85.87
80712;BME280;70078;51.596;5.678;2024-03-07T08:17:55;102282.72;;;5.24;85.41
80712;BME280;70078;51.596;5.678;2024-03-07T08:20:21;102306.81;;;5.34;84.98
80712;BME280;70078;51.596;5.678;2024-03-07T08:22:48;102300.91;;;5.57;83.45
80712;BME280;70078;51.596;5.678;2024-03-07T08:25:17;102282.50;;;5.42;84.03
80712;BME280;70078;51.596;5.678;2024-03-07T08:27:45;102286.16;;;5.53;83.03
80712;BME280;70078;51.596;5.678;2024-03-07T08:30:11;102279.81;;;5.56;82.86
80712;BME280;70078;51.596;5.678;2024-03-07T08:32:43;102301.53;;;5.75;82.76
80712;BME280;70078;51.596;5.678;2024-03-07T08:35:09;102289.63;;;5.68;82.52
80712;BME280;70078;51.596;5.678;2024-03-07T08:37:36;102299.13;;;5.85;82.08
80712;BME280;70078;51.596;5.678;2024-03-07T08:40:03;102296.47;;;5.85;82.49
80712;BME280;70078;51.596;5.678;2024-03-07T08:42:36;102306.84;;;6.02;81.67
80712;BME280;70078;51.596;5.678;2024-03-07T08:45:02;102305.91;;;6.03;82.06
80712;BME280;70078;51.596;5.678;2024-03-07T08:47:36;102282.47;;;5.97;81.86
80712;BME280;70078;51.596;5.678;2024-03-07T08:50:02;102275.78;;;6.04;80.05
80712;BME280;70078;51.596;5.678;2024-03-07T08:52:31;102290.09;;;6.29;80.02
80712;BME280;70078;51.596;5.678;2024-03-07T08:54:57;102262.31;;;6.47;78.50
80712;BME280;70078;51.596;5.678;2024-03-07T08:57:23;102293.31;;;6.85;77.79
80712;BME280;70078;51.596;5.678;2024-03-07T08:59:49;102273.34;;;6.92;76.18
80712;BME280;70078;51.596;5.678;2024-03-07T09:02:15;102271.66;;;7.04;77.34
80712;BME280;70078;51.596;5.678;2024-03-07T09:04:40;102246.75;;;7.17;76.52
80712;BME280;70078;51.596;5.678;2024-03-07T09:07:06;102275.69;;;7.46;76.77
80712;BME280;70078;51.596;5.678;2024-03-07T09:09:33;102276.66;;;7.69;74.06
80712;BME280;70078;51.596;5.678;2024-03-07T09:11:58;102278.09;;;8.10;72.10
80712;BME280;70078;51.596;5.678;2024-03-07T09:14:24;102275.56;;;8.19;72.45
80712;BME280;70078;51.596;5.678;2024-03-07T09:16:49;102275.84;;;8.27;70.50
80712;BME280;70078;51.596;5.678;2024-03-07T09:19:16;102262.16;;;8.67;69.86
80712;BME280;70078;51.596;5.678;2024-03-07T09:21:46;102276.00;;;9.06;69.69
80712;BME280;70078;51.596;5.678;2024-03-07T09:24:14;102254.91;;;8.92;66.82
80712;BME280;70078;51.596;5.678;2024-03-07T09:26:40;102265.47;;;9.04;65.78
80712;BME280;70078;51.596;5.678;2024-03-07T09:29:05;102266.56;;;9.02;66.45
80712;BME280;70078;51.596;5.678;2024-03-07T09:31:32;102244.63;;;8.98;67.13
80712;BME280;70078;51.596;5.678;2024-03-07T09:33:57;102260.50;;;9.22;65.56
80712;BME280;70078;51.596;5.678;2024-03-07T09:36:24;102246.94;;;9.25;65.27
80712;BME280;70078;51.596;5.678;2024-03-07T09:38:49;102267.47;;;9.57;64.32
80712;BME280;70078;51.596;5.678;2024-03-07T09:41:14;102268.16;;;9.59;63.60
80712;BME280;70078;51.596;5.678;2024-03-07T09:43:48;102259.59;;;9.98;63.27
80712;BME280;70078;51.596;5.678;2024-03-07T09:46:17;102261.19;;;10.11;62.87
80712;BME280;70078;51.596;5.678;2024-03-07T09:48:43;102235.47;;;10.21;60.86
80712;BME280;70078;51.596;5.678;2024-03-07T09:51:09;102260.56;;;10.30;60.64
80712;BME280;70078;51.596;5.678;2024-03-07T09:53:37;102242.00;;;10.28;60.74
80712;BME280;70078;51.596;5.678;2024-03-07T09:56:03;102241.03;;;10.29;60.93
80712;BME280;70078;51.596;5.678;2024-03-07T09:58:30;102239.25;;;10.39;59.46
80712;BME280;70078;51.596;5.678;2024-03-07T10:01:00;102219.72;;;10.60;59.60
80712;BME280;70078;51.596;5.678;2024-03-07T10:03:29;102249.31;;;10.56;58.01
80712;BME280;70078;51.596;5.678;2024-03-07T10:05:54;102231.38;;;10.89;59.27
80712;BME280;70078;51.596;5.678;2024-03-07T10:08:20;102242.94;;;10.99;57.84
80712;BME280;70078;51.596;5.678;2024-03-07T10:10:47;102249.91;;;10.81;57.66
80712;BME280;70078;51.596;5.678;2024-03-07T10:13:14;102212.03;;;11.06;58.05
80712;BME280;70078;51.596;5.678;2024-03-07T10:15:39;102236.25;;;11.24;57.10
80712;BME280;70078;51.596;5.678;2024-03-07T10:18:08;102207.28;;;11.20;55.83
80712;BME280;70078;51.596;5.678;2024-03-07T10:20:36;102227.41;;;11.33;56.96
80712;BME280;70078;51.596;5.678;2024-03-07T10:23:03;102221.47;;;11.89;57.16
80712;BME280;70078;51.596;5.678;2024-03-07T10:25:28;102220.34;;;11.92;54.30
80712;BME280;70078;51.596;5.678;2024-03-07T10:27:53;102236.72;;;13.02;54.73
80712;BME280;70078;51.596;5.678;2024-03-07T10:30:19;102232.25;;;12.56;52.00
80712;BME280;70078;51.596;5.678;2024-03-07T10:32:51;102228.94;;;12.71;52.86
80712;BME280;70078;51.596;5.678;2024-03-07T10:35:22;102209.19;;;12.72;52.29
80712;BME280;70078;51.596;5.678;2024-03-07T10:37:55;102225.22;;;12.82;52.09
80712;BME280;70078;51.596;5.678;2024-03-07T10:40:23;102216.28;;;13.28;51.28
80712;BME280;70078;51.596;5.678;2024-03-07T10:42:52;102227.50;;;13.42;49.13
80712;BME280;70078;51.596;5.678;2024-03-07T10:45:21;102220.44;;;13.13;50.24
80712;BME280;70078;51.596;5.678;2024-03-07T10:47:57;102215.69;;;13.35;48.31
80712;BME280;70078;51.596;5.678;2024-03-07T10:55:53;102201.50;;;13.60;46.62
80712;BME280;70078;51.596;5.678;2024-03-07T10:58:37;102208.88;;;13.94;45.08
80712;BME280;70078;51.596;5.678;2024-03-07T11:01:07;102212.34;;;13.68;45.69
80712;BME280;70078;51.596;5.678;2024-03-07T11:03:36;102209.19;;;13.73;46.13
80712;BME280;70078;51.596;5.678;2024-03-07T11:06:02;102210.88;;;13.92;45.19
80712;BME280;70078;51.596;5.678;2024-03-07T11:08:33;102197.88;;;14.23;46.32
80712;BME280;70078;51.596;5.678;2024-03-07T11:10:59;102196.22;;;14.48;46.22
80712;BME280;70078;51.596;5.678;2024-03-07T11:13:25;102185.75;;;14.70;45.93
80712;BME280;70078;51.596;5.678;2024-03-07T11:15:52;102185.31;;;14.83;44.65
80712;BME280;70078;51.596;5.678;2024-03-07T11:18:22;102165.63;;;15.25;44.21
80712;BME280;70078;51.596;5.678;2024-03-07T11:20:49;102179.44;;;15.30;43.68
80712;BME280;70078;51.596;5.678;2024-03-07T11:23:33;102182.47;;;15.27;43.09
80712;BME280;70078;51.596;5.678;2024-03-07T11:26:04;102189.34;;;14.87;44.33
80712;BME280;70078;51.596;5.678;2024-03-07T11:28:40;102165.19;;;14.35;45.19
80712;BME280;70078;51.596;5.678;2024-03-07T11:33:36;102162.13;;;13.60;45.88
80712;BME280;70078;51.596;5.678;2024-03-07T11:36:02;102164.47;;;13.28;46.87
80712;BME280;70078;51.596;5.678;2024-03-07T11:38:32;102172.25;;;12.66;48.66
80712;BME280;70078;51.596;5.678;2024-03-07T11:41:01;102173.28;;;12.18;50.35
80712;BME280;70078;51.596;5.678;2024-03-07T11:43:27;102163.72;;;11.97;49.63
80712;BME280;70078;51.596;5.678;2024-03-07T11:45:53;102163.97;;;11.45;51.69
80712;BME280;70078;51.596;5.678;2024-03-07T11:48:18;102148.91;;;11.25;51.57
80712;BME280;70078;51.596;5.678;2024-03-07T11:50:45;102140.81;;;10.86;53.40
80712;BME280;70078;51.596;5.678;2024-03-07T11:53:11;102133.06;;;10.73;53.78
80712;BME280;70078;51.596;5.678;2024-03-07T11:55:37;102148.63;;;10.68;54.46
80712;BME280;70078;51.596;5.678;2024-03-07T11:58:18;102146.03;;;10.57;55.68
80712;BME280;70078;51.596;5.678;2024-03-07T12:00:48;102148.94;;;10.44;56.12
80712;BME280;70078;51.596;5.678;2024-03-07T12:03:15;102131.41;;;10.51;54.97
80712;BME280;70078;51.596;5.678;2024-03-07T12:05:48;102147.44;;;10.51;55.08
80712;BME280;70078;51.596;5.678;2024-03-07T12:08:14;102136.03;;;10.49;56.33
80712;BME280;70078;51.596;5.678;2024-03-07T12:10:40;102127.22;;;10.59;56.05
80712;BME280;70078;51.596;5.678;2024-03-07T12:13:09;102123.94;;;10.86;55.45
80712;BME280;70078;51.596;5.678;2024-03-07T12:15:38;102123.53;;;10.90;54.68
80712;BME280;70078;51.596;5.678;2024-03-07T12:18:04;102098.31;;;10.73;55.13
80712;BME280;70078;51.596;5.678;2024-03-07T12:20:41;102116.50;;;10.89;54.60
80712;BME280;70078;51.596;5.678;2024-03-07T12:23:08;102106.34;;;10.83;55.01
80712;BME280;70078;51.596;5.678;2024-03-07T12:25:40;102106.81;;;10.98;54.98
80712;BME280;70078;51.596;5.678;2024-03-07T12:28:13;102072.31;;;10.85;54.48
80712;BME280;70078;51.596;5.678;2024-03-07T12:30:50;102093.00;;;10.83;54.51
80712;BME280;70078;51.596;5.678;2024-03-07T12:33:17;102097.13;;;10.97;55.11
80712;BME280;70078;51.596;5.678;2024-03-07T12:35:43;102069.38;;;10.88;55.10
80712;BME280;70078;51.596;5.678;2024-03-07T12:38:09;102079.81;;;11.30;54.63
80712;BME280;70078;51.596;5.678;2024-03-07T12:40:41;102081.66;;;11.20;54.80
80712;BME280;70078;51.596;5.678;2024-03-07T12:43:13;102087.16;;;11.28;54.30
80712;BME280;70078;51.596;5.678;2024-03-07T12:45:58;102066.03;;;11.25;54.50
80712;BME280;70078;51.596;5.678;2024-03-07T12:48:24;102049.16;;;11.15;53.88
80712;BME280;70078;51.596;5.678;2024-03-07T12:50:51;102060.69;;;11.15;53.57
80712;BME280;70078;51.596;5.678;2024-03-07T12:53:20;102061.50;;;10.87;55.06
80712;BME280;70078;51.596;5.678;2024-03-07T12:55:47;102067.56;;;10.89;54.97
80712;BME280;70078;51.596;5.678;2024-03-07T12:58:12;102066.78;;;10.57;56.31
80712;BME280;70078;51.596;5.678;2024-03-07T13:00:41;102044.84;;;10.54;55.66
80712;BME280;70078;51.596;5.678;2024-03-07T13:03:10;102051.63;;;10.58;55.07